createdAt,value
2022-08-24T00:00:26.069Z,33.30
2022-08-24T00:02:53.003Z,31.08
2022-08-24T00:05:21.430Z,30.08
2022-08-24T00:07:50.023Z,31.67
2022-08-24T00:10:17.717Z,30.65
2022-08-24T00:12:44.653Z,30.67
2022-08-24T00:15:13.205Z,31.88
2022-08-24T00:17:40.587Z,32.15
2022-08-24T00:20:09.349Z,30.35
2022-08-24T00:22:36.095Z,32.78
2022-08-24T00:25:03.539Z,32.85
2022-08-24T00:27:30.316Z,32.85
2022-08-24T00:29:57.281Z,31.77
2022-08-24T00:32:24.133Z,31.17
2022-08-24T00:34:58.281Z,33.00
2022-08-24T00:37:25.704Z,30.83
2022-08-24T00:39:52.576Z,30.35
2022-08-24T00:42:19.496Z,33.17
2022-08-24T00:44:46.292Z,32.45
2022-08-24T00:47:24.861Z,33.42
2022-08-24T00:50:09.228Z,32.45
2022-08-24T00:52:41.065Z,34.83
2022-08-24T00:55:12.577Z,33.72
2022-08-24T00:57:44.063Z,36.65
2022-08-24T01:00:16.660Z,37.65
2022-08-24T01:02:48.408Z,34.92
2022-08-24T01:05:16.433Z,36.40
2022-08-24T01:07:43.534Z,36.03
2022-08-24T01:10:25.066Z,32.95
2022-08-24T01:13:00.582Z,34.63
2022-08-24T01:15:37.610Z,35.33
2022-08-24T01:18:24.675Z,33.22
2022-08-24T01:21:10.680Z,35.22
2022-08-24T01:23:47.989Z,33.55
2022-08-24T01:26:22.647Z,32.50
2022-08-24T01:28:55.937Z,34.78
2022-08-24T01:31:24.408Z,36.13
2022-08-24T01:33:53.043Z,36.10
2022-08-24T01:36:33.348Z,35.70
2022-08-24T01:39:05.959Z,34.50
2022-08-24T01:41:32.746Z,37.05
2022-08-24T01:44:00.345Z,38.33
2022-08-24T01:46:28.995Z,35.47
2022-08-24T01:48:58.079Z,36.30
2022-08-24T01:51:29.585Z,35.28
2022-08-24T01:53:56.345Z,35.55
2022-08-24T01:56:23.235Z,34.45
2022-08-24T01:58:50.087Z,36.33
2022-08-24T02:01:18.800Z,35.80
2022-08-24T02:03:48.426Z,35.10
2022-08-24T02:06:19.914Z,33.63
2022-08-24T02:08:47.246Z,35.63
2022-08-24T02:11:15.668Z,36.47
2022-08-24T02:13:42.966Z,36.20
2022-08-24T02:16:10.296Z,36.55
2022-08-24T02:18:40.414Z,35.13
2022-08-24T02:21:09.811Z,35.50
2022-08-24T02:23:38.876Z,35.88
2022-08-24T02:26:08.232Z,36.42
2022-08-24T02:28:35.881Z,35.83
2022-08-24T02:31:05.908Z,35.67
2022-08-24T02:33:35.317Z,33.08
2022-08-24T02:36:03.040Z,34.42
2022-08-24T02:38:31.393Z,33.72
2022-08-24T02:40:58.583Z,34.95
2022-08-24T02:43:26.457Z,34.53
2022-08-24T02:45:55.636Z,35.72
2022-08-24T02:48:23.272Z,35.03
2022-08-24T02:50:52.604Z,36.22
2022-08-24T02:53:22.344Z,36.80
2022-08-24T02:55:49.899Z,34.95
2022-08-24T02:58:18.008Z,34.55
2022-08-24T03:00:48.536Z,34.65
2022-08-24T03:03:18.219Z,35.75
2022-08-24T03:05:45.134Z,36.63
2022-08-24T03:08:12.606Z,35.60
2022-08-24T03:10:39.887Z,35.70
2022-08-24T03:13:07.773Z,35.97
2022-08-24T03:15:35.224Z,34.70
2022-08-24T03:18:02.338Z,36.80
2022-08-24T03:20:30.478Z,34.65
2022-08-24T03:22:58.002Z,34.83
2022-08-24T03:25:26.590Z,34.63
2022-08-24T03:27:53.464Z,31.75
2022-08-24T03:30:21.197Z,34.08
2022-08-24T03:32:49.588Z,32.22
2022-08-24T03:35:18.251Z,32.25
2022-08-24T03:37:45.124Z,33.17
2022-08-24T03:40:23.050Z,32.15
2022-08-24T03:42:54.388Z,32.53
2022-08-24T03:45:21.900Z,30.42
2022-08-24T03:47:49.140Z,30.55
2022-08-24T03:50:15.949Z,30.67
2022-08-24T03:52:42.814Z,30.25
2022-08-24T03:55:10.604Z,29.20
2022-08-24T03:57:37.883Z,30.85
2022-08-24T04:00:08.217Z,32.45
2022-08-24T04:02:42.037Z,30.02
2022-08-24T04:05:13.024Z,33.22
2022-08-24T04:07:41.395Z,33.95
2022-08-24T04:10:08.649Z,33.42
2022-08-24T04:12:35.497Z,34.35
2022-08-24T04:15:02.483Z,33.90
2022-08-24T04:17:30.796Z,32.78
2022-08-24T04:19:58.697Z,33.83
2022-08-24T04:22:36.767Z,31.42
2022-08-24T04:25:08.833Z,33.45
2022-08-24T04:27:36.027Z,32.13
2022-08-24T04:30:04.110Z,34.92
2022-08-24T04:32:41.132Z,32.42
2022-08-24T04:35:09.142Z,32.40
2022-08-24T04:37:35.967Z,31.80
2022-08-24T04:40:04.627Z,32.38
2022-08-24T04:42:37.375Z,32.70
2022-08-24T04:45:04.659Z,24.98
2022-08-24T04:47:31.458Z,19.48
2022-08-24T04:50:00.262Z,30.80
2022-08-24T04:52:28.620Z,31.38
2022-08-24T04:54:55.473Z,31.30
2022-08-24T04:57:24.856Z,30.13
2022-08-24T04:59:56.550Z,30.52
2022-08-24T05:02:24.504Z,30.20
2022-08-24T05:04:55.291Z,33.90
2022-08-24T05:07:22.456Z,34.78
2022-08-24T05:09:52.352Z,33.60
2022-08-24T05:12:20.868Z,32.17
2022-08-24T05:14:59.386Z,32.00
2022-08-24T05:17:27.663Z,31.92
2022-08-24T05:19:54.607Z,31.67
2022-08-24T05:22:21.801Z,30.40
2022-08-24T05:24:53.191Z,30.25
2022-08-24T05:27:21.317Z,26.70
2022-08-24T05:29:54.079Z,26.08
2022-08-24T05:32:21.014Z,27.35
2022-08-24T05:34:49.368Z,26.23
2022-08-24T05:37:16.218Z,25.88
2022-08-24T05:40:14.902Z,26.25
2022-08-24T05:42:44.536Z,27.20
2022-08-24T05:45:12.851Z,26.00
2022-08-24T05:47:39.895Z,27.13
2022-08-24T05:50:26.908Z,29.85
2022-08-24T05:52:53.900Z,28.10
2022-08-24T05:55:20.835Z,26.98
2022-08-24T05:57:47.579Z,26.73
2022-08-24T06:00:21.563Z,25.60
2022-08-24T06:02:53.848Z,25.75
2022-08-24T06:05:22.133Z,26.73
2022-08-24T06:07:49.916Z,28.30
2022-08-24T06:10:35.805Z,28.17
2022-08-24T06:13:05.645Z,26.10
2022-08-24T06:15:33.105Z,25.50
2022-08-24T06:18:00.043Z,23.92
2022-08-24T06:20:27.151Z,22.13
2022-08-24T06:22:54.079Z,22.10
2022-08-24T06:25:41.587Z,22.00
2022-08-24T06:28:08.335Z,19.35
2022-08-24T06:30:35.244Z,24.30
2022-08-24T06:33:11.991Z,23.75
2022-08-24T06:35:46.842Z,21.85
2022-08-24T06:38:14.359Z,21.15
2022-08-24T06:40:42.892Z,20.55
2022-08-24T06:43:11.085Z,20.58
2022-08-24T06:45:45.490Z,19.17
2022-08-24T06:48:15.664Z,18.02
2022-08-24T06:50:44.141Z,16.98
2022-08-24T06:53:14.875Z,16.80
2022-08-24T06:55:57.510Z,16.33
2022-08-24T06:58:31.371Z,14.80
2022-08-24T07:01:10.210Z,15.07
2022-08-24T07:03:37.725Z,15.57
2022-08-24T07:06:19.060Z,15.32
2022-08-24T07:08:46.452Z,16.00
2022-08-24T07:11:17.623Z,16.15
2022-08-24T07:13:48.264Z,16.95
2022-08-24T07:16:16.457Z,16.70
2022-08-24T07:18:49.315Z,16.13
2022-08-24T07:21:19.848Z,14.77
2022-08-24T07:23:50.378Z,14.48
2022-08-24T07:26:22.786Z,13.48
2022-08-24T07:29:01.315Z,11.27
2022-08-24T07:31:35.822Z,9.85
2022-08-24T07:34:19.751Z,10.25
2022-08-24T07:36:46.587Z,11.35
2022-08-24T07:39:14.625Z,9.90
2022-08-24T07:42:02.527Z,8.15
2022-08-24T07:44:31.769Z,8.90
2022-08-24T07:47:04.134Z,8.43
2022-08-24T07:49:42.508Z,8.98
2022-08-24T07:52:10.663Z,8.30
2022-08-24T07:54:37.938Z,9.13
2022-08-24T07:57:06.664Z,9.68
2022-08-24T07:59:36.065Z,7.95
2022-08-24T08:02:05.257Z,6.25
2022-08-24T08:04:32.330Z,8.15
2022-08-24T08:07:03.276Z,8.18
2022-08-24T08:09:32.573Z,7.97
2022-08-24T08:11:59.726Z,7.25
2022-08-24T08:14:27.016Z,6.85
2022-08-24T08:16:54.207Z,6.22
2022-08-24T08:19:22.217Z,6.45
2022-08-24T08:22:10.427Z,6.20
2022-08-24T08:24:57.745Z,5.32
2022-08-24T08:27:25.230Z,5.43
2022-08-24T08:29:52.619Z,5.10
2022-08-24T08:32:21.279Z,4.75
2022-08-24T08:34:50.488Z,4.97
2022-08-24T08:37:18.187Z,5.15
2022-08-24T08:39:45.505Z,4.60
2022-08-24T08:42:19.010Z,6.03
2022-08-24T08:45:06.661Z,5.90
2022-08-24T08:48:15.494Z,5.18
2022-08-24T08:50:54.602Z,5.40
2022-08-24T08:53:53.783Z,6.05
2022-08-24T08:56:49.922Z,5.70
2022-08-24T08:59:43.259Z,4.90
2022-08-24T09:02:44.230Z,5.50
2022-08-24T09:05:37.219Z,5.05
2022-08-24T09:08:22.251Z,5.38
2022-08-24T09:11:08.309Z,6.20
2022-08-24T09:14:04.666Z,5.60
2022-08-24T09:16:58.044Z,5.72
2022-08-24T09:19:57.861Z,5.85
2022-08-24T09:22:25.294Z,5.70
2022-08-24T09:24:55.097Z,4.88
2022-08-24T09:27:50.373Z,4.85
2022-08-24T09:30:44.922Z,4.72
2022-08-24T09:33:22.317Z,4.97
2022-08-24T09:35:51.683Z,4.95
2022-08-24T09:38:29.861Z,4.95
2022-08-24T09:41:18.420Z,4.55
2022-08-24T09:44:22.945Z,4.13
2022-08-24T09:46:59.158Z,4.30
2022-08-24T09:50:11.100Z,4.18
2022-08-24T09:52:47.429Z,4.13
2022-08-24T09:55:38.398Z,4.47
2022-08-24T09:58:31.145Z,3.13
2022-08-24T10:01:22.949Z,4.25
2022-08-24T10:04:16.012Z,4.82
2022-08-24T10:07:01.517Z,3.65
2022-08-24T10:09:51.950Z,3.70
2022-08-24T10:12:42.684Z,4.00
2022-08-24T10:15:26.837Z,3.33
2022-08-24T10:18:24.177Z,3.63
2022-08-24T10:21:12.358Z,3.17
2022-08-24T10:23:50.866Z,3.47
2022-08-24T10:26:53.967Z,3.28
2022-08-24T10:29:41.779Z,3.30
2022-08-24T10:32:17.856Z,3.80
2022-08-24T10:34:54.491Z,4.00
2022-08-24T10:38:25.252Z,3.78
2022-08-24T10:41:39.271Z,3.92
2022-08-24T10:44:37.228Z,4.43
2022-08-24T10:47:20.904Z,3.97
2022-08-24T10:50:09.427Z,3.80
2022-08-24T10:52:53.353Z,3.58
2022-08-24T10:55:24.883Z,3.40
2022-08-24T10:58:10.308Z,2.75
2022-08-24T11:00:37.538Z,3.28
2022-08-24T11:03:14.598Z,2.95
2022-08-24T11:05:53.891Z,4.07
2022-08-24T11:08:27.834Z,4.03
2022-08-24T11:11:07.029Z,3.33
2022-08-24T11:13:36.619Z,3.35
2022-08-24T11:16:05.554Z,3.78
2022-08-24T11:18:51.377Z,4.72
2022-08-24T11:21:33.126Z,4.43
2022-08-24T11:24:23.999Z,4.07
2022-08-24T11:26:56.530Z,2.65
2022-08-24T11:29:31.501Z,2.15
2022-08-24T11:31:59.079Z,2.28
2022-08-24T11:34:36.835Z,2.40
2022-08-24T11:37:10.704Z,2.20
2022-08-24T11:39:38.176Z,2.10
2022-08-24T11:42:14.608Z,2.30
2022-08-24T11:45:09.456Z,2.22
2022-08-24T11:47:53.082Z,3.40
2022-08-24T11:50:49.814Z,3.80
2022-08-24T11:56:28.784Z,3.97
2022-08-24T11:59:04.827Z,3.85
2022-08-24T12:01:40.642Z,3.90
2022-08-24T12:04:20.402Z,5.05
2022-08-24T12:06:49.777Z,4.35
2022-08-24T12:09:38.480Z,4.10
2022-08-24T12:12:24.370Z,4.13
2022-08-24T12:15:01.939Z,3.08
2022-08-24T12:17:45.230Z,3.90
2022-08-24T12:20:18.192Z,4.50
2022-08-24T12:22:45.434Z,4.70
2022-08-24T12:25:31.764Z,4.43
2022-08-24T12:27:59.203Z,4.95
2022-08-24T12:30:27.143Z,5.18
2022-08-24T12:32:59.101Z,5.78
2022-08-24T12:35:38.098Z,5.75
2022-08-24T12:38:13.962Z,4.53
2022-08-24T12:41:00.657Z,5.47
2022-08-24T12:43:51.831Z,6.38
2022-08-24T12:46:23.877Z,6.10
2022-08-24T12:48:57.029Z,6.25
2022-08-24T12:52:01.536Z,6.18
2022-08-24T12:55:05.888Z,6.10
2022-08-24T12:57:51.835Z,5.50
2022-08-24T13:00:21.177Z,5.53
2022-08-24T13:02:58.616Z,6.47
2022-08-24T13:05:37.304Z,5.60
2022-08-24T13:08:21.230Z,5.40
2022-08-24T13:11:06.039Z,5.93
2022-08-24T13:14:04.847Z,4.88
2022-08-24T13:16:52.012Z,4.82
2022-08-24T13:19:34.109Z,5.60
2022-08-24T13:22:32.745Z,5.70
2022-08-24T13:25:02.580Z,4.97
2022-08-24T13:27:38.453Z,4.45
2022-08-24T13:30:20.520Z,4.55
2022-08-24T13:32:57.500Z,4.25
2022-08-24T13:35:30.667Z,4.15
2022-08-24T13:38:39.824Z,3.67
2022-08-24T13:41:09.002Z,3.70
2022-08-24T13:43:45.687Z,3.30
2022-08-24T13:46:36.922Z,3.70
2022-08-24T13:49:34.941Z,3.28
2022-08-24T13:52:46.112Z,3.33
2022-08-24T13:55:31.485Z,3.15
2022-08-24T13:58:36.552Z,3.53
2022-08-24T14:01:23.956Z,3.42
2022-08-24T14:04:24.677Z,3.72
2022-08-24T14:07:02.193Z,3.20
2022-08-24T14:09:40.362Z,2.90
2022-08-24T14:12:13.191Z,2.75
2022-08-24T14:14:57.278Z,3.17
2022-08-24T14:17:47.613Z,3.00
2022-08-24T14:20:30.568Z,3.30
2022-08-24T14:23:00.551Z,3.58
2022-08-24T14:25:33.237Z,4.00
2022-08-24T14:28:00.020Z,4.20
2022-08-24T14:30:26.765Z,3.88
2022-08-24T14:32:59.240Z,4.22
2022-08-24T14:35:48.250Z,3.95
2022-08-24T14:38:24.014Z,3.67
2022-08-24T14:41:17.929Z,3.78
2022-08-24T14:44:03.756Z,3.65
2022-08-24T14:46:53.189Z,3.47
2022-08-24T14:49:35.603Z,3.60
2022-08-24T14:52:37.421Z,3.38
2022-08-24T14:55:40.049Z,3.75
2022-08-24T14:58:11.836Z,3.63
2022-08-24T15:01:09.749Z,4.00
2022-08-24T15:04:32.049Z,3.83
2022-08-24T15:07:24.441Z,4.15
2022-08-24T15:09:52.938Z,4.00
2022-08-24T15:12:38.350Z,3.47
2022-08-24T15:15:27.134Z,4.10
2022-08-24T15:18:06.425Z,4.03
2022-08-24T15:20:36.390Z,3.67
2022-08-24T15:23:35.454Z,3.83
2022-08-24T15:26:09.488Z,4.30
2022-08-24T15:28:37.643Z,3.45
2022-08-24T15:31:27.545Z,4.03
2022-08-24T15:34:05.375Z,3.70
2022-08-24T15:36:34.216Z,3.78
2022-08-24T15:39:03.558Z,3.25
2022-08-24T15:41:35.556Z,4.00
2022-08-24T15:44:12.521Z,3.42
2022-08-24T15:46:53.431Z,3.08
2022-08-24T15:49:35.984Z,3.40
2022-08-24T15:52:09.271Z,3.22
2022-08-24T15:54:55.690Z,3.67
2022-08-24T15:57:25.466Z,3.08
2022-08-24T15:59:55.731Z,3.72
2022-08-24T16:02:30.586Z,3.60
2022-08-24T16:05:14.119Z,3.72
2022-08-24T16:08:06.676Z,4.28
2022-08-24T16:10:39.298Z,4.38
2022-08-24T16:13:17.563Z,4.65
2022-08-24T16:15:53.505Z,4.65
2022-08-24T16:18:21.011Z,3.70
2022-08-24T16:20:49.412Z,4.30
2022-08-24T16:23:33.171Z,4.50
2022-08-24T16:26:47.438Z,4.43
2022-08-24T16:29:39.129Z,4.85
2022-08-24T16:32:33.758Z,4.70
2022-08-24T16:35:19.280Z,4.88
2022-08-24T16:37:46.212Z,4.90
2022-08-24T16:40:14.150Z,4.90
2022-08-24T16:42:41.550Z,5.07
2022-08-24T16:45:11.209Z,5.10
2022-08-24T16:47:38.136Z,4.95
2022-08-24T16:50:06.208Z,5.22
2022-08-24T16:52:33.045Z,5.45
2022-08-24T16:55:01.516Z,5.28
2022-08-24T16:57:31.283Z,5.20
2022-08-24T16:59:58.566Z,5.32
2022-08-24T17:02:28.545Z,5.45
2022-08-24T17:04:56.189Z,5.47
2022-08-24T17:07:25.513Z,5.70
2022-08-24T17:09:53.505Z,5.80
2022-08-24T17:12:21.055Z,4.93
2022-08-24T17:14:48.114Z,5.40
2022-08-24T17:17:17.980Z,5.63
2022-08-24T17:19:50.276Z,5.40
2022-08-24T17:22:17.448Z,6.63
2022-08-24T17:24:45.424Z,6.53
2022-08-24T17:27:13.960Z,6.43
2022-08-24T17:29:43.635Z,6.15
2022-08-24T17:32:11.343Z,5.78
2022-08-24T17:34:38.929Z,6.03
2022-08-24T17:37:07.259Z,5.53
2022-08-24T17:39:34.183Z,5.53
2022-08-24T17:42:01.820Z,6.35
2022-08-24T17:44:33.295Z,6.00
2022-08-24T17:47:03.741Z,6.68
2022-08-24T17:49:32.649Z,7.70
2022-08-24T17:51:59.546Z,8.20
2022-08-24T17:54:28.407Z,7.90
2022-08-24T17:56:55.913Z,7.65
2022-08-24T17:59:29.186Z,7.60
2022-08-24T18:02:05.110Z,7.35
2022-08-24T18:04:34.214Z,7.18
2022-08-24T18:07:04.545Z,7.82
2022-08-24T18:09:35.182Z,7.20
2022-08-24T18:12:05.358Z,7.72
2022-08-24T18:14:34.515Z,7.30
2022-08-24T18:17:05.638Z,8.50
2022-08-24T18:19:33.823Z,8.27
2022-08-24T18:22:01.934Z,8.23
2022-08-24T18:24:32.614Z,9.55
2022-08-24T18:27:21.720Z,8.52
2022-08-24T18:29:54.706Z,8.20
2022-08-24T18:32:21.839Z,8.70
2022-08-24T18:34:48.919Z,9.40
2022-08-24T18:37:15.857Z,8.90
2022-08-24T18:39:42.645Z,9.43
2022-08-24T18:42:11.469Z,9.23
2022-08-24T18:44:39.524Z,9.38
2022-08-24T18:47:07.198Z,9.65
2022-08-24T18:49:35.581Z,9.05
2022-08-24T18:52:06.186Z,9.20
2022-08-24T18:54:37.364Z,9.05
2022-08-24T18:57:07.030Z,10.38
2022-08-24T18:59:35.476Z,10.07
2022-08-24T19:02:31.895Z,10.27
2022-08-24T19:05:11.183Z,10.60
2022-08-24T19:07:41.362Z,10.50
2022-08-24T19:10:10.334Z,11.30
2022-08-24T19:12:42.537Z,11.45
2022-08-24T19:15:35.709Z,10.98
2022-08-24T19:18:02.426Z,12.57
2022-08-24T19:20:30.795Z,12.65
2022-08-24T19:23:05.600Z,12.18
2022-08-24T19:25:33.183Z,12.55
2022-08-24T19:27:59.993Z,11.57
2022-08-24T19:30:28.093Z,10.70
2022-08-24T19:32:55.990Z,9.52
2022-08-24T19:35:22.994Z,9.88
2022-08-24T19:37:50.110Z,9.32
2022-08-24T19:40:17.987Z,8.30
2022-08-24T19:42:50.871Z,9.25
2022-08-24T19:45:42.857Z,8.02
2022-08-24T19:48:11.014Z,8.10
2022-08-24T19:50:38.270Z,8.07
2022-08-24T19:53:06.762Z,7.30
2022-08-24T19:55:33.712Z,8.25
2022-08-24T19:58:08.933Z,7.53
2022-08-24T20:00:58.059Z,7.90
2022-08-24T20:03:25.201Z,8.25
2022-08-24T20:05:52.082Z,8.05
2022-08-24T20:08:20.357Z,8.43
2022-08-24T20:10:47.818Z,8.77
2022-08-24T20:13:14.658Z,7.90
2022-08-24T20:15:41.848Z,8.75
2022-08-24T20:18:08.869Z,8.85
2022-08-24T20:20:35.760Z,8.18
2022-08-24T20:23:06.074Z,8.55
2022-08-24T20:25:39.604Z,7.57
2022-08-24T20:30:55.558Z,7.93
2022-08-24T20:33:23.782Z,7.57
2022-08-24T20:35:51.146Z,7.13
2022-08-24T20:38:20.189Z,6.25
2022-08-24T20:40:48.396Z,6.82
2022-08-24T20:43:15.394Z,6.43
2022-08-24T20:45:42.468Z,6.32
2022-08-24T20:48:13.919Z,6.40
2022-08-24T20:50:44.529Z,6.65
2022-08-24T20:53:12.284Z,6.47
2022-08-24T20:55:41.193Z,6.35
2022-08-24T20:58:08.246Z,7.35
2022-08-24T21:00:35.134Z,6.75
2022-08-24T21:03:02.380Z,6.72
2022-08-24T21:05:29.208Z,6.47
2022-08-24T21:07:57.955Z,7.40
2022-08-24T21:10:27.114Z,7.32
2022-08-24T21:12:55.197Z,8.48
2022-08-24T21:15:25.197Z,7.00
2022-08-24T21:17:52.916Z,7.63
2022-08-24T21:20:20.662Z,7.25
2022-08-24T21:22:47.670Z,7.93
2022-08-24T21:25:17.438Z,7.63
2022-08-24T21:27:46.606Z,8.05
2022-08-24T21:30:17.221Z,8.20
2022-08-24T21:33:03.276Z,8.50
2022-08-24T21:35:31.137Z,8.18
2022-08-24T21:37:59.051Z,8.00
2022-08-24T21:40:26.789Z,7.43
2022-08-24T21:42:53.804Z,5.95
2022-08-24T21:45:21.186Z,6.28
2022-08-24T21:47:48.827Z,6.10
2022-08-24T21:50:18.068Z,6.10
2022-08-24T21:52:44.915Z,5.40
2022-08-24T21:55:15.097Z,6.00
2022-08-24T21:57:42.185Z,5.97
2022-08-24T22:00:15.229Z,5.70
2022-08-24T22:02:42.158Z,5.32
2022-08-24T22:05:09.390Z,5.47
2022-08-24T22:07:36.742Z,5.30
2022-08-24T22:10:04.836Z,5.25
2022-08-24T22:12:31.757Z,5.68
2022-08-24T22:14:58.553Z,6.07
2022-08-24T22:17:25.328Z,6.80
2022-08-24T22:19:52.105Z,6.63
2022-08-24T22:22:18.950Z,6.43
2022-08-24T22:24:45.737Z,6.72
2022-08-24T22:27:13.248Z,6.53
2022-08-24T22:29:40.008Z,6.22
2022-08-24T22:32:06.946Z,6.50
2022-08-24T22:34:36.490Z,5.70
2022-08-24T22:37:05.103Z,5.38
2022-08-24T22:39:32.057Z,5.03
2022-08-24T22:41:59.137Z,5.45
2022-08-24T22:44:27.716Z,5.13
2022-08-24T22:46:57.504Z,4.88
2022-08-24T22:49:27.949Z,4.70
2022-08-24T22:51:54.951Z,4.82
2022-08-24T22:54:23.419Z,3.92
2022-08-24T22:56:53.814Z,4.35
2022-08-24T22:59:41.525Z,4.63
2022-08-24T23:02:14.039Z,4.43
2022-08-24T23:04:44.409Z,4.20
2022-08-24T23:07:12.468Z,4.10
2022-08-24T23:09:44.210Z,4.55
2022-08-24T23:12:14.089Z,5.00
2022-08-24T23:14:41.716Z,4.10
2022-08-24T23:17:08.914Z,4.65
2022-08-24T23:19:54.835Z,4.40
2022-08-24T23:22:22.094Z,4.95
2022-08-24T23:24:49.152Z,4.30
2022-08-24T23:27:16.964Z,5.03
2022-08-24T23:29:44.582Z,4.72
2022-08-24T23:32:12.150Z,4.80
2022-08-24T23:34:39.445Z,4.80
2022-08-24T23:37:06.301Z,4.28
2022-08-24T23:39:33.362Z,4.50
2022-08-24T23:42:00.484Z,4.25
2022-08-24T23:44:29.242Z,4.53
2022-08-24T23:46:58.011Z,4.75
2022-08-24T23:49:29.668Z,5.32
2022-08-24T23:51:57.953Z,5.10
2022-08-24T23:54:25.032Z,4.97
2022-08-24T23:56:52.839Z,5.47
2022-08-24T23:59:27.570Z,4.95
